Aérodrome :
LOGIN :

S'inscrire | Disclaimer

   EN    FR    IT 

 










Légende :    VFR   VFR Marginal   IFR   IFR Intensif   IFR Très Intensif
Visi : 
Plafond : 
>= 8 km
>= 3000ft
5 à 8 km
1000 à 3000 ft
1500m à 5 km
500 à 1000 ft
800 à 1500m
200 à 500 ft
< 800m
< 200 ft
Symboles :   Orages  Brouillard  Fortes neiges  Fortes précipitations  Vent > 20 kt
SIGMETs :   Divers  Orages  Givrage  Turbulence  Onde Orograph.  Cendres Volcan.






- Altitude de l'aérodrome : 297 ft
- Code IATA : BBU


LRBS - Bucarest - Baneasa Aurel Vlaicu

DERNIER METAR :
  • 191530Z 36005KT 9999 OVC043 03/M02 Q1030 NOSIG

METARs EXPIRÉS :
  • 191500Z 01003KT 340V040 9999 OVC043 03/M02 Q1029 NOSIG
  • 191430Z 03004KT 9999 OVC043 03/M02 Q1029 NOSIG
  • 191400Z 02004KT 9999 OVC042 03/M02 Q1029 NOSIG
  • 191330Z 01005KT 9999 OVC042 03/M02 Q1029 NOSIG
  • 191300Z 03004KT 350V050 9999 OVC040 03/M02 Q1028 NOSIG

TAF TAF LRBS
Valide du 19 à 12h jusqu'au 20 à 12h UTC


191100Z 1912/2012 03006KT 9999 OVC030
PROB30
TEMPO 2000/2006 5000 -SN BR BKN015 OVC020



MET'MAP, la Météo Aéronautique d'un coup d'oeil ! - Copyright ORBIFLY Décembre 2007 - Disclaimer

ORBIFLY MET'MAP TEAM :

Programmation & Développement : Alexandra Zaïnal
Sur une idée originale de : Baudouin d'Aumeries
Assistance à la programmation : Marc-Olivier Méhu
Soutien technique & logistique : Manuel Goepfert

Contact : metmap@orbifly.com




SOURCES & CREDITS :

   NOAA